KWVL/WVL METAR and TAF weather

Enter ICAO airport designator
Station Type Date Time Source
KWVL METAR 2019/06/17 04:24 UTC NOAA

KWVL 170424Z AUTO 00000KT 7SM OVC004 17/16 A2980 RMK AO2


Station Type Date Time Source
KWVL Decoded METAR 2019/06/17 04:24 UTC NOAA

Waterville, Waterville Robert LaFleur Airport, ME, United States (KWVL) 44-32N 069-41W
Jun 17, 2019 - 12:24 AM EDT / 2019.06.17 0424 UTC
Wind: Calm:0
Visibility: 7 mile(s):0
Sky conditions: overcast
Temperature: 62 F (17 C)
Dew Point: 60 F (16 C)
Relative Humidity: 93%
Pressure (altimeter): 29.8 in. Hg (1009 hPa)
ob: KWVL 170424Z AUTO 00000KT 7SM OVC004 17/16 A2980 RMK AO2
cycle: 4

Station Type Date Time Source
KWVL TAF UTC NOAA

Error!

Example: see airport list